createdAt,value
2018-09-13T00:01:57.316Z,60.30
2018-09-13T00:04:26.660Z,60.51
2018-09-13T00:06:57.868Z,61.63
2018-09-13T00:09:28.328Z,60.39
2018-09-13T00:11:57.521Z,59.94
2018-09-13T00:14:30.432Z,61.49
2018-09-13T00:16:59.718Z,62.47
2018-09-13T00:19:28.738Z,62.82
2018-09-13T00:21:57.846Z,62.41
2018-09-13T00:24:26.936Z,63.85
2018-09-13T00:26:56.025Z,63.33
2018-09-13T00:29:25.037Z,61.99
2018-09-13T00:31:54.092Z,60.50
2018-09-13T00:34:23.256Z,61.12
2018-09-13T00:36:52.485Z,64.32
2018-09-13T00:39:22.513Z,64.43
2018-09-13T00:41:51.637Z,64.63
2018-09-13T00:44:20.662Z,64.52
2018-09-13T00:46:49.913Z,63.99
2018-09-13T00:49:19.007Z,63.72
2018-09-13T00:52:07.995Z,63.38
2018-09-13T00:54:37.273Z,63.59
2018-09-13T00:57:06.364Z,62.06
2018-09-13T00:59:35.487Z,61.58
2018-09-13T01:02:04.564Z,61.76
2018-09-13T01:04:33.645Z,63.02
2018-09-13T01:07:02.760Z,62.38
2018-09-13T01:09:31.841Z,61.57
2018-09-13T01:12:01.042Z,61.49
2018-09-13T01:14:30.266Z,59.86
2018-09-13T01:16:59.296Z,59.22
2018-09-13T01:19:28.351Z,59.34
2018-09-13T01:21:57.370Z,60.36
2018-09-13T01:24:26.508Z,60.84
2018-09-13T01:26:55.623Z,62.00
2018-09-13T01:29:24.733Z,62.50
2018-09-13T01:31:53.975Z,62.01
2018-09-13T01:34:23.051Z,63.17
2018-09-13T01:36:52.197Z,62.81
2018-09-13T01:39:21.211Z,63.38
2018-09-13T01:41:50.708Z,63.56
2018-09-13T01:44:19.921Z,62.08
2018-09-13T01:46:49.036Z,62.78
2018-09-13T01:49:18.659Z,62.57
2018-09-13T01:51:50.221Z,61.78
2018-09-13T01:54:19.336Z,63.19
2018-09-13T01:57:02.916Z,62.51
2018-09-13T01:59:34.054Z,61.77
2018-09-13T02:02:03.193Z,62.48
2018-09-13T02:04:32.282Z,63.02
2018-09-13T02:07:01.452Z,62.94
2018-09-13T02:09:30.524Z,62.34
2018-09-13T02:12:03.743Z,63.13
2018-09-13T02:14:32.823Z,62.68
2018-09-13T02:17:02.150Z,63.30
2018-09-13T02:19:31.351Z,61.99
2018-09-13T02:22:00.458Z,60.37
2018-09-13T02:24:29.620Z,60.25
2018-09-13T02:26:58.712Z,61.00
2018-09-13T02:29:27.713Z,60.97
2018-09-13T02:31:56.901Z,62.04
2018-09-13T02:34:25.978Z,61.46
2018-09-13T02:36:55.027Z,61.47
2018-09-13T02:39:24.138Z,62.25
2018-09-13T02:41:53.205Z,61.73
2018-09-13T02:44:22.533Z,60.94
2018-09-13T02:46:51.883Z,60.68
2018-09-13T02:49:21.224Z,60.45
2018-09-13T02:51:50.369Z,60.68
2018-09-13T02:54:19.398Z,61.11
2018-09-13T02:56:48.391Z,60.30
2018-09-13T02:59:17.986Z,60.81
2018-09-13T03:01:47.034Z,59.85
2018-09-13T03:04:16.957Z,61.08
2018-09-13T03:06:46.397Z,59.35
2018-09-13T03:09:16.129Z,58.67
2018-09-13T03:11:45.207Z,58.81
2018-09-13T03:14:14.480Z,59.73
2018-09-13T03:16:43.749Z,59.88
2018-09-13T03:19:12.882Z,59.42
2018-09-13T03:21:42.021Z,57.94
2018-09-13T03:24:15.783Z,57.12
2018-09-13T03:26:44.891Z,57.05
2018-09-13T03:29:14.267Z,55.37
2018-09-13T03:31:43.639Z,56.12
2018-09-13T03:34:12.753Z,56.27
2018-09-13T03:36:42.002Z,56.89
2018-09-13T03:39:12.310Z,58.44
2018-09-13T03:41:41.425Z,60.93
2018-09-13T03:44:10.547Z,60.74
2018-09-13T03:46:39.644Z,61.13
2018-09-13T03:49:08.749Z,60.64
2018-09-13T03:51:37.889Z,60.35
2018-09-13T03:54:06.933Z,59.06
2018-09-13T03:56:36.005Z,60.43
2018-09-13T03:59:05.250Z,59.70
2018-09-13T04:01:34.336Z,58.93
2018-09-13T04:04:03.380Z,60.50
2018-09-13T04:06:32.529Z,60.71
2018-09-13T04:09:01.600Z,60.09
2018-09-13T04:11:30.716Z,57.88
2018-09-13T04:13:59.856Z,57.40
2018-09-13T04:16:33.224Z,56.56
2018-09-13T04:19:05.335Z,55.97
2018-09-13T04:21:37.663Z,57.17
2018-09-13T04:24:07.918Z,60.83
2018-09-13T04:26:37.013Z,60.92
2018-09-13T04:29:06.164Z,62.45
2018-09-13T04:31:35.765Z,62.03
2018-09-13T04:34:05.259Z,62.07
2018-09-13T04:36:35.238Z,62.87
2018-09-13T04:39:05.242Z,63.19
2018-09-13T04:41:34.288Z,63.64
2018-09-13T04:44:04.416Z,63.87
2018-09-13T04:46:34.599Z,61.76
2018-09-13T04:49:03.871Z,61.66
2018-09-13T04:51:32.831Z,63.01
2018-09-13T04:54:02.084Z,63.22
2018-09-13T04:56:31.276Z,64.07
2018-09-13T04:59:00.354Z,64.08
2018-09-13T05:01:29.524Z,64.48
2018-09-13T05:03:58.645Z,65.11
2018-09-13T05:06:27.859Z,65.11
2018-09-13T05:08:57.177Z,63.81
2018-09-13T05:11:26.359Z,63.49
2018-09-13T05:13:55.509Z,62.75
2018-09-13T05:16:24.542Z,61.56
2018-09-13T05:18:53.617Z,60.86
2018-09-13T05:21:22.752Z,60.58
2018-09-13T05:23:51.807Z,58.90
2018-09-13T05:26:20.789Z,57.92
2018-09-13T05:28:49.824Z,56.51
2018-09-13T05:31:19.148Z,55.83
2018-09-13T05:33:48.312Z,55.68
2018-09-13T05:36:18.136Z,54.72
2018-09-13T05:38:47.520Z,54.83
2018-09-13T05:41:17.179Z,57.44
2018-09-13T05:43:46.300Z,61.26
2018-09-13T05:46:15.969Z,62.34
2018-09-13T05:48:45.135Z,62.75
2018-09-13T05:51:14.460Z,63.14
2018-09-13T05:53:43.858Z,62.71
2018-09-13T05:56:12.840Z,63.74
2018-09-13T05:58:41.929Z,62.28
2018-09-13T06:01:11.209Z,63.29
2018-09-13T06:03:40.406Z,60.86
2018-09-13T06:06:09.541Z,64.11
2018-09-13T06:08:38.698Z,68.38
2018-09-13T06:11:08.438Z,70.50
2018-09-13T06:13:37.794Z,70.81
2018-09-13T06:16:07.185Z,70.67
2018-09-13T06:18:36.267Z,72.82
2018-09-13T06:21:05.320Z,73.38
2018-09-13T06:23:34.484Z,72.38
2018-09-13T06:26:03.512Z,70.74
2018-09-13T06:28:32.605Z,67.24
2018-09-13T06:31:01.937Z,65.81
2018-09-13T06:33:32.971Z,64.46
2018-09-13T06:36:02.044Z,63.72
2018-09-13T06:38:31.061Z,65.67
2018-09-13T06:41:00.085Z,66.19
2018-09-13T06:43:29.156Z,64.47
2018-09-13T06:45:58.151Z,62.35
2018-09-13T06:48:27.235Z,61.92
2018-09-13T06:50:56.314Z,63.59
2018-09-13T06:53:25.746Z,65.78
2018-09-13T06:55:54.821Z,68.09
2018-09-13T06:58:23.938Z,69.63
2018-09-13T07:00:52.997Z,71.01
2018-09-13T07:03:22.091Z,69.98
2018-09-13T07:05:51.251Z,72.41
2018-09-13T07:08:20.588Z,70.38
2018-09-13T07:10:49.805Z,69.61
2018-09-13T07:13:18.948Z,70.30
2018-09-13T07:15:50.307Z,70.27
2018-09-13T07:18:19.421Z,66.82
2018-09-13T07:20:48.599Z,65.69
2018-09-13T07:23:18.265Z,66.53
2018-09-13T07:25:47.410Z,66.15
2018-09-13T07:28:16.888Z,68.74
2018-09-13T07:30:45.995Z,65.37
2018-09-13T07:33:15.419Z,68.59
2018-09-13T07:35:46.912Z,72.08
2018-09-13T07:38:16.268Z,74.54
2018-09-13T07:40:45.304Z,76.27
2018-09-13T07:43:14.465Z,77.30
2018-09-13T07:45:43.580Z,75.25
2018-09-13T07:48:12.673Z,73.77
2018-09-13T07:50:42.178Z,73.04
2018-09-13T07:53:11.371Z,73.37
2018-09-13T07:55:40.538Z,73.71
2018-09-13T07:58:09.676Z,74.67
2018-09-13T08:00:38.757Z,75.89
2018-09-13T08:03:07.813Z,74.64
2018-09-13T08:05:36.846Z,75.06
2018-09-13T08:08:05.973Z,75.19
2018-09-13T08:13:42.580Z,74.23
2018-09-13T08:16:12.247Z,73.02
2018-09-13T08:18:41.376Z,72.79
2018-09-13T08:21:10.698Z,66.94
2018-09-13T08:23:39.730Z,66.42
2018-09-13T08:26:08.950Z,68.68
2018-09-13T08:28:37.996Z,71.34
2018-09-13T08:31:07.023Z,71.45
2018-09-13T08:33:36.142Z,68.26
2018-09-13T08:36:05.261Z,69.96
2018-09-13T08:38:34.689Z,69.82
2018-09-13T08:41:03.793Z,69.47
2018-09-13T08:52:08.827Z,64.28
2018-09-13T08:54:38.002Z,62.80
2018-09-13T08:57:07.223Z,62.14
2018-09-13T08:59:36.540Z,61.21
2018-09-13T09:10:41.352Z,58.78
2018-09-13T09:13:11.243Z,59.42
2018-09-13T09:15:40.270Z,60.40
2018-09-13T09:18:09.636Z,61.34
2018-09-13T09:20:38.744Z,61.67
2018-09-13T09:23:08.635Z,63.33
2018-09-13T09:25:37.776Z,64.80
2018-09-13T09:28:07.501Z,65.03
2018-09-13T09:30:36.637Z,65.96
2018-09-13T09:33:05.759Z,63.29
2018-09-13T09:35:34.815Z,65.08
2018-09-13T09:38:03.845Z,65.54
2018-09-13T09:40:33.192Z,64.43
2018-09-13T09:43:02.295Z,64.61
2018-09-13T09:45:31.601Z,64.94
2018-09-13T09:48:00.799Z,65.97
2018-09-13T09:50:29.912Z,64.38
2018-09-13T09:52:59.078Z,65.07
2018-09-13T09:55:28.342Z,64.98
2018-09-13T09:57:57.688Z,65.41
2018-09-13T10:00:31.841Z,66.25
2018-09-13T10:03:01.084Z,65.31
2018-09-13T10:05:32.721Z,67.08
2018-09-13T10:08:01.981Z,67.03
2018-09-13T10:10:31.304Z,67.69
2018-09-13T10:13:00.474Z,67.21
2018-09-13T10:15:34.629Z,67.83
2018-09-13T10:18:08.977Z,67.87
2018-09-13T10:20:42.951Z,68.16
2018-09-13T10:23:17.009Z,69.90
2018-09-13T10:25:51.063Z,70.05
2018-09-13T10:28:25.352Z,69.29
2018-09-13T10:30:59.469Z,68.49
2018-09-13T10:33:33.804Z,70.33
2018-09-13T10:36:08.004Z,71.68
2018-09-13T10:38:43.001Z,71.10
2018-09-13T10:41:17.238Z,71.03
2018-09-13T10:43:51.535Z,71.48
2018-09-13T10:46:28.003Z,70.23
2018-09-13T10:49:02.325Z,69.92
2018-09-13T10:51:36.433Z,70.71
2018-09-13T10:54:11.451Z,71.30
2018-09-13T10:56:41.268Z,72.42
2018-09-13T10:59:10.465Z,71.30
2018-09-13T11:01:39.643Z,71.91
2018-09-13T11:04:08.873Z,69.66
2018-09-13T11:06:37.843Z,71.25
2018-09-13T11:09:07.682Z,70.77
2018-09-13T11:11:36.730Z,68.43
2018-09-13T11:14:10.439Z,68.00
2018-09-13T11:16:39.575Z,68.45
2018-09-13T11:19:08.673Z,71.12
2018-09-13T11:21:37.730Z,72.87
2018-09-13T11:24:07.247Z,73.63
2018-09-13T11:26:36.284Z,72.64
2018-09-13T11:29:05.553Z,72.81
2018-09-13T11:31:34.599Z,71.32
2018-09-13T11:34:03.583Z,66.49
2018-09-13T11:36:32.632Z,71.35
2018-09-13T11:39:01.677Z,72.84
2018-09-13T11:41:30.725Z,73.86
2018-09-13T11:43:59.859Z,73.61
2018-09-13T11:46:28.905Z,74.22
2018-09-13T11:48:57.919Z,72.67
2018-09-13T11:51:27.075Z,69.88
2018-09-13T12:15:10.309Z,69.14
2018-09-13T12:17:39.842Z,69.77
2018-09-13T12:26:08.889Z,67.81
2018-09-13T12:28:38.125Z,68.53
2018-09-13T12:39:28.305Z,66.60
2018-09-13T12:50:35.608Z,67.94
2018-09-13T12:53:04.680Z,67.96
2018-09-13T12:55:38.807Z,67.05
2018-09-13T12:58:07.886Z,67.88
2018-09-13T13:00:37.009Z,67.75
2018-09-13T13:03:06.290Z,67.48
2018-09-13T13:05:35.816Z,66.86
2018-09-13T13:08:10.180Z,67.16
2018-09-13T13:10:39.509Z,66.57
2018-09-13T13:13:08.600Z,64.80
2018-09-13T13:15:37.646Z,64.10
2018-09-13T13:18:06.919Z,65.42
2018-09-13T13:20:35.992Z,65.91
2018-09-13T13:23:05.521Z,65.76
2018-09-13T13:25:34.739Z,65.38
2018-09-13T13:28:03.845Z,66.84
2018-09-13T13:30:33.218Z,67.98
2018-09-13T13:33:02.230Z,67.37
2018-09-13T13:35:31.817Z,67.59
2018-09-13T13:38:01.467Z,66.24
2018-09-13T13:40:31.140Z,65.49
2018-09-13T13:43:00.875Z,65.90
2018-09-13T13:45:30.090Z,66.70
2018-09-13T13:47:59.257Z,67.66
2018-09-13T13:50:30.259Z,67.50
2018-09-13T13:53:00.405Z,68.42
2018-09-13T13:55:30.170Z,68.20
2018-09-13T13:57:59.570Z,68.10
2018-09-13T14:00:28.680Z,67.00
2018-09-13T14:02:57.820Z,66.82
2018-09-13T14:05:27.435Z,66.66
2018-09-13T14:07:57.061Z,65.50
2018-09-13T14:10:27.061Z,64.73
2018-09-13T14:12:57.083Z,65.95
2018-09-13T14:15:26.781Z,65.77
2018-09-13T14:18:01.083Z,67.15
2018-09-13T14:20:30.923Z,66.45
2018-09-13T14:23:01.360Z,67.23
2018-09-13T14:30:02.451Z,63.86
2018-09-13T14:32:32.793Z,61.04
2018-09-13T14:35:01.926Z,62.06
2018-09-13T14:37:31.348Z,61.28
2018-09-13T14:40:00.835Z,62.70
2018-09-13T14:42:31.712Z,61.59
2018-09-13T14:45:01.672Z,60.86
2018-09-13T14:47:32.858Z,61.12
2018-09-13T14:50:03.924Z,60.59
2018-09-13T14:52:33.499Z,61.41
2018-09-13T14:55:03.174Z,59.62
2018-09-13T14:57:33.973Z,60.20
2018-09-13T15:00:04.341Z,61.10
2018-09-13T15:02:34.439Z,60.81
2018-09-13T15:05:04.314Z,61.24
2018-09-13T15:07:33.998Z,57.91
2018-09-13T15:10:03.268Z,59.12
2018-09-13T15:12:35.545Z,57.83
2018-09-13T15:15:05.194Z,57.65
2018-09-13T15:17:35.994Z,57.14
2018-09-13T15:20:06.084Z,55.32
2018-09-13T15:22:35.936Z,56.37
2018-09-13T15:25:05.492Z,55.84
2018-09-13T15:27:36.391Z,54.95
2018-09-13T15:30:07.164Z,54.62
2018-09-13T15:32:37.297Z,55.51
2018-09-13T15:35:07.666Z,55.10
2018-09-13T15:37:38.382Z,55.40
2018-09-13T15:40:07.841Z,56.42
2018-09-13T15:45:22.462Z,55.28
2018-09-13T15:47:52.185Z,55.34
2018-09-13T15:50:22.795Z,54.89
2018-09-13T15:52:54.082Z,55.51
2018-09-13T15:55:23.098Z,53.25
2018-09-13T15:57:53.279Z,54.83
2018-09-13T16:00:22.468Z,54.74
2018-09-13T16:02:51.827Z,55.96
2018-09-13T16:05:22.330Z,55.30
2018-09-13T16:07:51.573Z,54.49
2018-09-13T16:10:22.724Z,54.37
2018-09-13T16:12:52.924Z,54.09
2018-09-13T16:15:23.637Z,54.05
2018-09-13T16:17:53.943Z,56.05
2018-09-13T16:20:26.228Z,56.57
2018-09-13T16:22:55.693Z,57.70
2018-09-13T16:25:26.108Z,58.48
2018-09-13T16:27:56.004Z,58.81
2018-09-13T16:30:31.017Z,59.26
2018-09-13T16:33:00.813Z,58.34
2018-09-13T16:35:31.640Z,58.73
2018-09-13T16:38:08.255Z,58.79
2018-09-13T16:40:43.338Z,59.44
2018-09-13T16:43:15.583Z,58.75
2018-09-13T16:45:46.464Z,59.13
2018-09-13T16:48:21.999Z,59.83
2018-09-13T16:50:54.277Z,59.99
2018-09-13T16:53:23.958Z,59.19
2018-09-13T16:55:53.259Z,59.81
2018-09-13T16:58:22.801Z,59.18
2018-09-13T17:00:52.636Z,59.56
2018-09-13T17:03:22.418Z,59.97
2018-09-13T17:05:52.537Z,61.06
2018-09-13T17:08:22.801Z,61.58
2018-09-13T17:10:52.066Z,61.15
2018-09-13T17:13:21.085Z,62.22
2018-09-13T17:15:50.148Z,62.92
2018-09-13T17:18:20.065Z,63.03
2018-09-13T17:20:49.423Z,62.69
2018-09-13T17:23:23.959Z,60.66
2018-09-13T17:25:53.303Z,57.54
2018-09-13T17:28:23.831Z,58.56
2018-09-13T17:31:29.825Z,59.38
2018-09-13T17:34:25.836Z,61.61
2018-09-13T17:39:58.036Z,63.33
2018-09-13T17:42:27.005Z,62.41
2018-09-13T17:44:55.972Z,62.29
2018-09-13T17:47:24.977Z,61.39
2018-09-13T17:49:53.946Z,63.09
2018-09-13T17:52:22.895Z,63.01
2018-09-13T17:54:52.000Z,63.52
2018-09-13T17:57:20.971Z,64.35
2018-09-13T17:59:49.944Z,64.32
2018-09-13T18:02:19.029Z,64.26
2018-09-13T18:04:48.273Z,63.55
2018-09-13T18:07:17.305Z,64.04
2018-09-13T18:09:46.344Z,63.73
2018-09-13T18:12:15.317Z,63.39
2018-09-13T18:14:44.360Z,62.37
2018-09-13T18:17:13.408Z,60.94
2018-09-13T18:19:42.537Z,60.68
2018-09-13T18:22:11.582Z,60.75
2018-09-13T18:24:41.190Z,58.34
2018-09-13T18:27:10.431Z,57.34
2018-09-13T18:29:39.917Z,56.21
2018-09-13T18:32:08.983Z,57.13
2018-09-13T18:34:37.979Z,57.74
2018-09-13T18:37:07.073Z,58.92
2018-09-13T18:39:36.135Z,62.01
2018-09-13T18:42:05.647Z,63.13
2018-09-13T18:44:34.827Z,63.65
2018-09-13T18:47:04.074Z,61.81
2018-09-13T18:49:33.001Z,61.09
2018-09-13T18:52:02.055Z,61.26
2018-09-13T18:54:31.790Z,61.65
2018-09-13T18:57:00.840Z,64.07
2018-09-13T18:59:30.002Z,64.60
2018-09-13T19:01:59.102Z,62.88
2018-09-13T19:04:28.104Z,61.14
2018-09-13T19:06:57.882Z,58.68
2018-09-13T19:09:26.922Z,59.87
2018-09-13T19:11:55.959Z,59.61
2018-09-13T19:14:24.956Z,60.05
2018-09-13T19:16:53.995Z,61.46
2018-09-13T19:19:23.001Z,60.46
2018-09-13T19:21:52.016Z,60.11
2018-09-13T19:24:21.126Z,58.96
2018-09-13T19:26:50.167Z,59.17
2018-09-13T19:29:19.601Z,59.20
2018-09-13T19:31:49.045Z,58.43
2018-09-13T19:34:18.346Z,58.20
2018-09-13T19:36:48.358Z,58.35
2018-09-13T19:39:17.973Z,60.16
2018-09-13T19:41:47.417Z,61.52
2018-09-13T19:44:16.845Z,66.02
2018-09-13T19:46:46.124Z,65.32
2018-09-13T19:49:15.391Z,62.56
2018-09-13T19:51:44.699Z,62.35
2018-09-13T19:54:14.006Z,60.52
2018-09-13T19:56:43.328Z,63.58
2018-09-13T19:59:12.551Z,59.94
2018-09-13T20:01:41.570Z,57.66
2018-09-13T20:04:10.621Z,57.39
2018-09-13T20:06:39.563Z,57.56
2018-09-13T20:09:10.508Z,56.80
2018-09-13T20:11:39.550Z,57.82
2018-09-13T20:14:08.834Z,57.28
2018-09-13T20:16:37.847Z,57.72
2018-09-13T20:19:07.063Z,62.72
2018-09-13T20:21:36.104Z,66.51
2018-09-13T20:24:05.378Z,68.40
2018-09-13T20:26:34.441Z,68.54
2018-09-13T20:29:03.625Z,69.54
2018-09-13T20:31:33.479Z,70.39
2018-09-13T20:34:02.509Z,69.10
2018-09-13T20:36:31.448Z,60.72
2018-09-13T20:39:00.464Z,58.78
2018-09-13T20:41:29.526Z,58.44
2018-09-13T20:43:58.526Z,58.45
2018-09-13T20:46:27.821Z,65.13
2018-09-13T20:48:57.074Z,65.69
2018-09-13T20:51:26.050Z,67.19
2018-09-13T20:53:55.162Z,67.47
2018-09-13T20:56:24.158Z,66.82
2018-09-13T21:12:39.188Z,72.69
2018-09-13T21:15:08.864Z,73.75
2018-09-13T21:17:37.965Z,73.93
2018-09-13T21:20:07.741Z,73.62
2018-09-13T21:22:37.009Z,72.94
2018-09-13T21:25:06.730Z,72.62
2018-09-13T21:27:37.144Z,73.08
2018-09-13T21:30:08.491Z,73.18
2018-09-13T21:32:37.762Z,72.86
2018-09-13T21:35:07.555Z,71.72
2018-09-13T21:37:36.759Z,71.19
2018-09-13T21:40:06.687Z,70.77
2018-09-13T21:42:36.220Z,69.67
2018-09-13T21:45:05.995Z,67.71
2018-09-13T21:47:35.204Z,67.81
2018-09-13T21:50:04.830Z,68.18
2018-09-13T21:52:33.947Z,68.49
2018-09-13T21:55:03.452Z,67.94
2018-09-13T21:57:32.629Z,67.71
2018-09-13T22:02:38.218Z,69.16
2018-09-13T22:05:07.709Z,70.01
2018-09-13T22:07:43.456Z,72.18
2018-09-13T22:10:12.594Z,72.85
2018-09-13T22:12:41.677Z,73.53
2018-09-13T22:15:10.766Z,73.77
2018-09-13T22:17:39.925Z,73.36
2018-09-13T22:20:09.163Z,74.15
2018-09-13T22:22:38.367Z,74.14
2018-09-13T22:25:07.894Z,73.90
2018-09-13T22:27:37.004Z,74.11
2018-09-13T22:30:06.798Z,73.81
2018-09-13T22:32:35.919Z,74.21
2018-09-13T22:35:05.753Z,73.55
2018-09-13T22:37:35.825Z,74.34
2018-09-13T22:40:06.226Z,74.34
2018-09-13T22:45:13.608Z,74.57
2018-09-13T22:47:42.828Z,74.42
2018-09-13T22:50:12.374Z,75.07
2018-09-13T22:52:41.415Z,74.93
2018-09-13T22:55:10.505Z,74.58
2018-09-13T22:57:39.705Z,75.80
2018-09-13T23:00:08.996Z,77.41
2018-09-13T23:02:43.332Z,78.93
2018-09-13T23:05:12.550Z,79.83
2018-09-13T23:13:37.014Z,80.42
2018-09-13T23:16:06.293Z,81.29
2018-09-13T23:18:35.864Z,80.60
2018-09-13T23:21:04.910Z,81.20
2018-09-13T23:23:34.048Z,80.52
2018-09-13T23:26:03.369Z,80.89
2018-09-13T23:28:32.404Z,80.19
2018-09-13T23:31:01.772Z,80.82
2018-09-13T23:44:45.666Z,81.11
2018-09-13T23:47:14.838Z,81.48
2018-09-13T23:49:43.971Z,82.43
2018-09-13T23:52:13.061Z,82.13
2018-09-13T23:54:42.139Z,82.25
2018-09-13T23:57:11.172Z,83.07
2018-09-13T23:59:40.213Z,81.95
